sensor_id;sensor_type;location;lat;lon;timestamp;temperature;humidity
26378;DHT22;14078;50.974;6.786;2022-10-23T00:00:58;12.70;99.90
26378;DHT22;14078;50.974;6.786;2022-10-23T00:03:24;12.70;99.90
26378;DHT22;14078;50.974;6.786;2022-10-23T00:05:52;12.60;99.90
26378;DHT22;14078;50.974;6.786;2022-10-23T00:08:19;12.70;99.90
26378;DHT22;14078;50.974;6.786;2022-10-23T00:10:45;12.60;99.90
26378;DHT22;14078;50.974;6.786;2022-10-23T00:13:12;12.60;99.90
26378;DHT22;14078;50.974;6.786;2022-10-23T00:15:38;12.60;99.90
26378;DHT22;14078;50.974;6.786;2022-10-23T00:18:05;12.60;99.90
26378;DHT22;14078;50.974;6.786;2022-10-23T00:20:31;12.50;99.90
26378;DHT22;14078;50.974;6.786;2022-10-23T00:22:59;12.50;99.90
26378;DHT22;14078;50.974;6.786;2022-10-23T00:25:26;12.50;99.90
26378;DHT22;14078;50.974;6.786;2022-10-23T00:27:52;12.50;99.90
26378;DHT22;14078;50.974;6.786;2022-10-23T00:30:19;12.40;99.90
26378;DHT22;14078;50.974;6.786;2022-10-23T00:32:45;12.40;99.90
26378;DHT22;14078;50.974;6.786;2022-10-23T00:35:12;12.30;99.90
26378;DHT22;14078;50.974;6.786;2022-10-23T00:37:38;12.20;99.90
26378;DHT22;14078;50.974;6.786;2022-10-23T00:40:07;12.20;99.90
26378;DHT22;14078;50.974;6.786;2022-10-23T00:42:34;12.20;99.90
26378;DHT22;14078;50.974;6.786;2022-10-23T00:45:08;12.20;99.90
26378;DHT22;14078;50.974;6.786;2022-10-23T00:47:35;12.20;99.90
26378;DHT22;14078;50.974;6.786;2022-10-23T00:50:01;12.20;99.90
26378;DHT22;14078;50.974;6.786;2022-10-23T00:52:28;12.10;99.90
26378;DHT22;14078;50.974;6.786;2022-10-23T00:54:55;12.10;99.90
26378;DHT22;14078;50.974;6.786;2022-10-23T00:57:23;12.20;99.90
26378;DHT22;14078;50.974;6.786;2022-10-23T00:59:49;12.30;99.90
26378;DHT22;14078;50.974;6.786;2022-10-23T01:02:16;12.40;99.90
26378;DHT22;14078;50.974;6.786;2022-10-23T01:04:42;12.40;99.90
26378;DHT22;14078;50.974;6.786;2022-10-23T01:07:10;12.40;99.90
26378;DHT22;14078;50.974;6.786;2022-10-23T01:09:40;12.40;99.90
26378;DHT22;14078;50.974;6.786;2022-10-23T01:12:09;12.30;99.90
26378;DHT22;14078;50.974;6.786;2022-10-23T01:14:41;12.30;99.90
26378;DHT22;14078;50.974;6.786;2022-10-23T01:17:11;12.40;99.90
26378;DHT22;14078;50.974;6.786;2022-10-23T01:19:45;12.40;99.90
26378;DHT22;14078;50.974;6.786;2022-10-23T01:22:18;12.30;99.90
26378;DHT22;14078;50.974;6.786;2022-10-23T01:24:55;12.30;99.90
26378;DHT22;14078;50.974;6.786;2022-10-23T01:27:24;12.30;99.90
26378;DHT22;14078;50.974;6.786;2022-10-23T01:29:55;12.30;99.90
26378;DHT22;14078;50.974;6.786;2022-10-23T01:32:28;12.20;99.90
26378;DHT22;14078;50.974;6.786;2022-10-23T01:34:56;12.30;99.90
26378;DHT22;14078;50.974;6.786;2022-10-23T01:37:26;12.40;99.90
26378;DHT22;14078;50.974;6.786;2022-10-23T01:39:54;12.40;99.90
26378;DHT22;14078;50.974;6.786;2022-10-23T01:42:26;12.50;99.90
26378;DHT22;14078;50.974;6.786;2022-10-23T01:44:56;12.50;99.90
26378;DHT22;14078;50.974;6.786;2022-10-23T01:47:24;12.50;99.90
26378;DHT22;14078;50.974;6.786;2022-10-23T01:49:52;12.50;99.90
26378;DHT22;14078;50.974;6.786;2022-10-23T01:52:21;12.60;99.90
26378;DHT22;14078;50.974;6.786;2022-10-23T01:54:48;12.50;99.90
26378;DHT22;14078;50.974;6.786;2022-10-23T01:57:16;12.50;99.90
26378;DHT22;14078;50.974;6.786;2022-10-23T01:59:45;12.40;99.90
26378;DHT22;14078;50.974;6.786;2022-10-23T02:02:12;12.40;99.90
26378;DHT22;14078;50.974;6.786;2022-10-23T02:04:41;12.30;99.90
26378;DHT22;14078;50.974;6.786;2022-10-23T02:07:10;12.30;99.90
26378;DHT22;14078;50.974;6.786;2022-10-23T02:09:37;12.40;99.90
26378;DHT22;14078;50.974;6.786;2022-10-23T02:12:05;12.50;99.90
26378;DHT22;14078;50.974;6.786;2022-10-23T02:14:35;12.50;99.90
26378;DHT22;14078;50.974;6.786;2022-10-23T02:17:06;12.40;99.90
26378;DHT22;14078;50.974;6.786;2022-10-23T02:19:36;12.50;99.90
26378;DHT22;14078;50.974;6.786;2022-10-23T02:22:08;12.60;99.90
26378;DHT22;14078;50.974;6.786;2022-10-23T02:24:37;12.60;99.90
26378;DHT22;14078;50.974;6.786;2022-10-23T02:27:07;12.60;99.90
26378;DHT22;14078;50.974;6.786;2022-10-23T02:29:35;12.60;99.90
26378;DHT22;14078;50.974;6.786;2022-10-23T02:32:03;12.60;99.90
26378;DHT22;14078;50.974;6.786;2022-10-23T02:34:31;12.60;99.90
26378;DHT22;14078;50.974;6.786;2022-10-23T02:36:57;12.60;99.90
26378;DHT22;14078;50.974;6.786;2022-10-23T02:39:25;12.60;99.90
26378;DHT22;14078;50.974;6.786;2022-10-23T02:41:53;12.50;99.90
26378;DHT22;14078;50.974;6.786;2022-10-23T02:44:24;12.50;99.90
26378;DHT22;14078;50.974;6.786;2022-10-23T02:46:55;12.50;99.90
26378;DHT22;14078;50.974;6.786;2022-10-23T02:49:24;12.50;99.90
26378;DHT22;14078;50.974;6.786;2022-10-23T02:51:55;12.70;99.90
26378;DHT22;14078;50.974;6.786;2022-10-23T02:54:25;12.60;99.90
26378;DHT22;14078;50.974;6.786;2022-10-23T02:56:57;12.70;99.90
26378;DHT22;14078;50.974;6.786;2022-10-23T02:59:26;12.60;99.90
26378;DHT22;14078;50.974;6.786;2022-10-23T03:01:57;12.70;99.90
26378;DHT22;14078;50.974;6.786;2022-10-23T03:04:26;12.70;99.90
26378;DHT22;14078;50.974;6.786;2022-10-23T03:06:54;12.70;99.90
26378;DHT22;14078;50.974;6.786;2022-10-23T03:09:21;12.60;99.90
26378;DHT22;14078;50.974;6.786;2022-10-23T03:11:48;12.60;99.90
26378;DHT22;14078;50.974;6.786;2022-10-23T03:14:14;12.60;99.90
26378;DHT22;14078;50.974;6.786;2022-10-23T03:16:41;12.50;99.90
26378;DHT22;14078;50.974;6.786;2022-10-23T03:19:07;12.50;99.90
26378;DHT22;14078;50.974;6.786;2022-10-23T03:21:34;12.40;99.90
26378;DHT22;14078;50.974;6.786;2022-10-23T03:24:02;12.50;99.90
26378;DHT22;14078;50.974;6.786;2022-10-23T03:26:29;12.50;99.90
26378;DHT22;14078;50.974;6.786;2022-10-23T03:28:55;12.50;99.90
26378;DHT22;14078;50.974;6.786;2022-10-23T03:31:22;12.50;99.90
26378;DHT22;14078;50.974;6.786;2022-10-23T03:33:48;12.50;99.90
26378;DHT22;14078;50.974;6.786;2022-10-23T03:36:15;12.60;99.90
26378;DHT22;14078;50.974;6.786;2022-10-23T03:38:41;12.50;99.90
26378;DHT22;14078;50.974;6.786;2022-10-23T03:41:09;12.50;99.90
26378;DHT22;14078;50.974;6.786;2022-10-23T03:43:35;12.50;99.90
26378;DHT22;14078;50.974;6.786;2022-10-23T03:46:02;12.50;99.90
26378;DHT22;14078;50.974;6.786;2022-10-23T03:48:33;12.60;99.90
26378;DHT22;14078;50.974;6.786;2022-10-23T03:51:02;12.50;99.90
26378;DHT22;14078;50.974;6.786;2022-10-23T03:53:29;12.50;99.90
26378;DHT22;14078;50.974;6.786;2022-10-23T03:55:55;12.50;99.90
26378;DHT22;14078;50.974;6.786;2022-10-23T03:58:23;12.50;99.90
26378;DHT22;14078;50.974;6.786;2022-10-23T04:00:49;12.50;99.90
26378;DHT22;14078;50.974;6.786;2022-10-23T04:03:16;12.40;99.90
26378;DHT22;14078;50.974;6.786;2022-10-23T04:05:43;12.40;99.90
26378;DHT22;14078;50.974;6.786;2022-10-23T04:08:09;12.30;99.90
26378;DHT22;14078;50.974;6.786;2022-10-23T04:10:36;12.30;99.90
26378;DHT22;14078;50.974;6.786;2022-10-23T04:13:02;12.30;99.90
26378;DHT22;14078;50.974;6.786;2022-10-23T04:15:30;12.30;99.90
26378;DHT22;14078;50.974;6.786;2022-10-23T04:17:56;12.30;99.90
26378;DHT22;14078;50.974;6.786;2022-10-23T04:20:23;12.40;99.90
26378;DHT22;14078;50.974;6.786;2022-10-23T04:22:49;12.40;99.90
26378;DHT22;14078;50.974;6.786;2022-10-23T04:25:16;12.40;99.90
26378;DHT22;14078;50.974;6.786;2022-10-23T04:27:42;12.40;99.90
26378;DHT22;14078;50.974;6.786;2022-10-23T04:30:09;12.40;99.90
26378;DHT22;14078;50.974;6.786;2022-10-23T04:32:37;12.40;99.90
26378;DHT22;14078;50.974;6.786;2022-10-23T04:35:05;12.40;99.90
26378;DHT22;14078;50.974;6.786;2022-10-23T04:37:31;12.40;99.90
26378;DHT22;14078;50.974;6.786;2022-10-23T04:39:58;12.30;99.90
26378;DHT22;14078;50.974;6.786;2022-10-23T04:42:24;12.20;99.90
26378;DHT22;14078;50.974;6.786;2022-10-23T04:44:51;12.20;99.90
26378;DHT22;14078;50.974;6.786;2022-10-23T04:47:17;12.20;99.90
26378;DHT22;14078;50.974;6.786;2022-10-23T04:49:45;12.30;99.90
26378;DHT22;14078;50.974;6.786;2022-10-23T04:52:12;12.30;99.90
26378;DHT22;14078;50.974;6.786;2022-10-23T04:54:38;12.30;99.90
26378;DHT22;14078;50.974;6.786;2022-10-23T04:57:05;12.30;99.90
26378;DHT22;14078;50.974;6.786;2022-10-23T04:59:31;12.30;99.90
26378;DHT22;14078;50.974;6.786;2022-10-23T05:01:58;12.40;99.90
26378;DHT22;14078;50.974;6.786;2022-10-23T05:04:24;12.40;99.90
26378;DHT22;14078;50.974;6.786;2022-10-23T05:06:52;12.50;99.90
26378;DHT22;14078;50.974;6.786;2022-10-23T05:09:19;12.50;99.90
26378;DHT22;14078;50.974;6.786;2022-10-23T05:11:46;12.50;99.90
26378;DHT22;14078;50.974;6.786;2022-10-23T05:14:13;12.50;99.90
26378;DHT22;14078;50.974;6.786;2022-10-23T05:16:41;12.50;99.90
26378;DHT22;14078;50.974;6.786;2022-10-23T05:19:08;12.50;99.90
26378;DHT22;14078;50.974;6.786;2022-10-23T05:21:35;12.40;99.90
26378;DHT22;14078;50.974;6.786;2022-10-23T05:24:05;12.30;99.90
26378;DHT22;14078;50.974;6.786;2022-10-23T05:26:31;12.30;99.90
26378;DHT22;14078;50.974;6.786;2022-10-23T05:28:58;12.30;99.90
26378;DHT22;14078;50.974;6.786;2022-10-23T05:31:24;12.30;99.90
26378;DHT22;14078;50.974;6.786;2022-10-23T05:33:51;12.40;99.90
26378;DHT22;14078;50.974;6.786;2022-10-23T05:36:18;12.40;99.90
26378;DHT22;14078;50.974;6.786;2022-10-23T05:38:44;12.30;99.90
26378;DHT22;14078;50.974;6.786;2022-10-23T05:41:12;12.40;99.90
26378;DHT22;14078;50.974;6.786;2022-10-23T05:43:39;12.40;99.90
26378;DHT22;14078;50.974;6.786;2022-10-23T05:46:06;12.40;99.90
26378;DHT22;14078;50.974;6.786;2022-10-23T05:48:32;12.40;99.90
26378;DHT22;14078;50.974;6.786;2022-10-23T05:51:02;12.30;99.90
26378;DHT22;14078;50.974;6.786;2022-10-23T05:53:29;12.30;99.90
26378;DHT22;14078;50.974;6.786;2022-10-23T05:55:56;12.20;99.90
26378;DHT22;14078;50.974;6.786;2022-10-23T05:58:23;12.20;99.90
26378;DHT22;14078;50.974;6.786;2022-10-23T06:00:50;12.20;99.90
26378;DHT22;14078;50.974;6.786;2022-10-23T06:03:16;12.10;99.90
26378;DHT22;14078;50.974;6.786;2022-10-23T06:05:47;12.10;99.90
26378;DHT22;14078;50.974;6.786;2022-10-23T06:08:14;12.10;99.90
26378;DHT22;14078;50.974;6.786;2022-10-23T06:10:40;12.20;99.90
26378;DHT22;14078;50.974;6.786;2022-10-23T06:13:07;12.20;99.90
26378;DHT22;14078;50.974;6.786;2022-10-23T06:15:35;12.20;99.90
26378;DHT22;14078;50.974;6.786;2022-10-23T06:18:01;12.30;99.90
26378;DHT22;14078;50.974;6.786;2022-10-23T06:20:28;12.40;99.90
26378;DHT22;14078;50.974;6.786;2022-10-23T06:22:55;12.40;99.90
26378;DHT22;14078;50.974;6.786;2022-10-23T06:25:21;12.50;99.90
26378;DHT22;14078;50.974;6.786;2022-10-23T06:27:49;12.50;99.90
26378;DHT22;14078;50.974;6.786;2022-10-23T06:30:16;12.60;99.90
26378;DHT22;14078;50.974;6.786;2022-10-23T06:32:43;12.50;99.90
26378;DHT22;14078;50.974;6.786;2022-10-23T06:35:10;12.60;99.90
26378;DHT22;14078;50.974;6.786;2022-10-23T06:37:36;12.60;99.90
26378;DHT22;14078;50.974;6.786;2022-10-23T06:40:03;12.60;99.90
26378;DHT22;14078;50.974;6.786;2022-10-23T06:42:30;12.60;99.90
26378;DHT22;14078;50.974;6.786;2022-10-23T06:44:57;12.60;99.90
26378;DHT22;14078;50.974;6.786;2022-10-23T06:47:23;12.70;99.90
26378;DHT22;14078;50.974;6.786;2022-10-23T06:49:51;12.70;99.90
26378;DHT22;14078;50.974;6.786;2022-10-23T06:52:17;12.70;99.90
26378;DHT22;14078;50.974;6.786;2022-10-23T06:54:44;12.80;99.90
26378;DHT22;14078;50.974;6.786;2022-10-23T06:57:10;12.90;99.90
26378;DHT22;14078;50.974;6.786;2022-10-23T06:59:37;12.90;99.90
26378;DHT22;14078;50.974;6.786;2022-10-23T07:02:03;13.00;99.90
26378;DHT22;14078;50.974;6.786;2022-10-23T07:04:30;12.90;99.90
26378;DHT22;14078;50.974;6.786;2022-10-23T07:06:58;12.90;99.90
26378;DHT22;14078;50.974;6.786;2022-10-23T07:09:24;12.90;99.90
26378;DHT22;14078;50.974;6.786;2022-10-23T07:11:51;13.00;99.90
26378;DHT22;14078;50.974;6.786;2022-10-23T07:14:17;13.10;99.90
26378;DHT22;14078;50.974;6.786;2022-10-23T07:16:44;13.00;99.90
26378;DHT22;14078;50.974;6.786;2022-10-23T07:19:10;13.00;99.90
26378;DHT22;14078;50.974;6.786;2022-10-23T07:21:37;13.00;99.90
26378;DHT22;14078;50.974;6.786;2022-10-23T07:24:05;13.10;99.90
26378;DHT22;14078;50.974;6.786;2022-10-23T07:26:31;13.10;99.90
26378;DHT22;14078;50.974;6.786;2022-10-23T07:28:58;13.20;99.90
26378;DHT22;14078;50.974;6.786;2022-10-23T07:31:24;13.20;99.90
26378;DHT22;14078;50.974;6.786;2022-10-23T07:33:51;13.30;99.90
26378;DHT22;14078;50.974;6.786;2022-10-23T07:36:18;13.30;99.90
26378;DHT22;14078;50.974;6.786;2022-10-23T07:38:44;13.40;99.90
26378;DHT22;14078;50.974;6.786;2022-10-23T07:41:12;13.50;99.90
26378;DHT22;14078;50.974;6.786;2022-10-23T07:43:40;13.50;99.90
26378;DHT22;14078;50.974;6.786;2022-10-23T07:46:06;13.50;99.90
26378;DHT22;14078;50.974;6.786;2022-10-23T07:48:34;13.60;99.90
26378;DHT22;14078;50.974;6.786;2022-10-23T07:51:01;13.60;99.90
26378;DHT22;14078;50.974;6.786;2022-10-23T07:53:32;13.70;99.90
26378;DHT22;14078;50.974;6.786;2022-10-23T07:55:59;13.80;99.90
26378;DHT22;14078;50.974;6.786;2022-10-23T07:58:28;13.80;99.90
26378;DHT22;14078;50.974;6.786;2022-10-23T08:00:56;13.90;99.90
26378;DHT22;14078;50.974;6.786;2022-10-23T08:03:23;13.90;99.90
26378;DHT22;14078;50.974;6.786;2022-10-23T08:05:50;14.00;99.90
26378;DHT22;14078;50.974;6.786;2022-10-23T08:08:17;14.10;99.90
26378;DHT22;14078;50.974;6.786;2022-10-23T08:10:44;14.10;99.90
26378;DHT22;14078;50.974;6.786;2022-10-23T08:13:11;14.20;99.90
26378;DHT22;14078;50.974;6.786;2022-10-23T08:15:39;14.20;99.90
26378;DHT22;14078;50.974;6.786;2022-10-23T08:18:06;14.30;99.90
26378;DHT22;14078;50.974;6.786;2022-10-23T08:20:36;14.40;99.90
26378;DHT22;14078;50.974;6.786;2022-10-23T08:23:02;14.40;99.90
26378;DHT22;14078;50.974;6.786;2022-10-23T08:25:29;14.40;99.90
26378;DHT22;14078;50.974;6.786;2022-10-23T08:27:55;14.40;99.90
26378;DHT22;14078;50.974;6.786;2022-10-23T08:30:22;14.50;99.90
26378;DHT22;14078;50.974;6.786;2022-10-23T08:32:50;14.40;99.90
26378;DHT22;14078;50.974;6.786;2022-10-23T08:35:16;14.50;99.90
26378;DHT22;14078;50.974;6.786;2022-10-23T08:37:43;14.50;99.90
26378;DHT22;14078;50.974;6.786;2022-10-23T08:40:12;14.60;99.90
26378;DHT22;14078;50.974;6.786;2022-10-23T08:42:39;14.70;99.90
26378;DHT22;14078;50.974;6.786;2022-10-23T08:45:10;14.80;99.90
26378;DHT22;14078;50.974;6.786;2022-10-23T08:47:44;14.80;99.90
26378;DHT22;14078;50.974;6.786;2022-10-23T08:50:24;14.80;99.90
26378;DHT22;14078;50.974;6.786;2022-10-23T08:52:51;14.80;99.90
26378;DHT22;14078;50.974;6.786;2022-10-23T08:55:22;14.90;99.90
26378;DHT22;14078;50.974;6.786;2022-10-23T08:57:50;14.90;99.90
26378;DHT22;14078;50.974;6.786;2022-10-23T09:00:18;14.90;99.90
26378;DHT22;14078;50.974;6.786;2022-10-23T09:02:46;15.00;99.90
26378;DHT22;14078;50.974;6.786;2022-10-23T09:05:15;15.10;99.90
26378;DHT22;14078;50.974;6.786;2022-10-23T09:07:45;15.20;99.90
26378;DHT22;14078;50.974;6.786;2022-10-23T09:10:18;15.30;99.90
26378;DHT22;14078;50.974;6.786;2022-10-23T09:12:47;15.40;99.90
26378;DHT22;14078;50.974;6.786;2022-10-23T09:15:15;15.50;99.90
26378;DHT22;14078;50.974;6.786;2022-10-23T09:17:45;15.60;99.90
26378;DHT22;14078;50.974;6.786;2022-10-23T09:20:17;15.80;99.90
26378;DHT22;14078;50.974;6.786;2022-10-23T09:22:44;15.90;99.90
26378;DHT22;14078;50.974;6.786;2022-10-23T09:25:15;16.00;99.90
26378;DHT22;14078;50.974;6.786;2022-10-23T09:27:45;16.00;99.90
26378;DHT22;14078;50.974;6.786;2022-10-23T09:30:11;16.00;99.90
26378;DHT22;14078;50.974;6.786;2022-10-23T09:32:38;16.00;99.90
26378;DHT22;14078;50.974;6.786;2022-10-23T09:35:20;16.10;99.90
26378;DHT22;14078;50.974;6.786;2022-10-23T09:37:46;16.20;99.90
26378;DHT22;14078;50.974;6.786;2022-10-23T09:40:18;16.30;99.90
26378;DHT22;14078;50.974;6.786;2022-10-23T09:42:54;16.30;99.90
26378;DHT22;14078;50.974;6.786;2022-10-23T09:45:23;16.40;99.90
26378;DHT22;14078;50.974;6.786;2022-10-23T09:47:50;16.40;99.90
26378;DHT22;14078;50.974;6.786;2022-10-23T09:50:17;16.40;99.90
26378;DHT22;14078;50.974;6.786;2022-10-23T09:52:47;16.50;99.90
26378;DHT22;14078;50.974;6.786;2022-10-23T09:55:18;16.50;99.90
26378;DHT22;14078;50.974;6.786;2022-10-23T09:57:45;16.50;99.90
26378;DHT22;14078;50.974;6.786;2022-10-23T10:00:14;16.50;99.90
26378;DHT22;14078;50.974;6.786;2022-10-23T10:02:42;16.50;99.90
26378;DHT22;14078;50.974;6.786;2022-10-23T10:05:22;16.50;99.90
26378;DHT22;14078;50.974;6.786;2022-10-23T10:07:57;16.50;99.90
26378;DHT22;14078;50.974;6.786;2022-10-23T10:10:25;16.50;99.90
26378;DHT22;14078;50.974;6.786;2022-10-23T10:12:55;16.50;99.90
26378;DHT22;14078;50.974;6.786;2022-10-23T10:15:25;16.60;99.90
26378;DHT22;14078;50.974;6.786;2022-10-23T10:17:56;16.70;99.90
26378;DHT22;14078;50.974;6.786;2022-10-23T10:20:32;16.70;99.90
26378;DHT22;14078;50.974;6.786;2022-10-23T10:23:03;16.70;99.90
26378;DHT22;14078;50.974;6.786;2022-10-23T10:25:32;16.70;99.90
26378;DHT22;14078;50.974;6.786;2022-10-23T10:28:06;16.80;99.90
26378;DHT22;14078;50.974;6.786;2022-10-23T10:30:36;16.80;99.90
26378;DHT22;14078;50.974;6.786;2022-10-23T10:33:04;16.90;99.90
26378;DHT22;14078;50.974;6.786;2022-10-23T10:35:36;16.90;99.90
26378;DHT22;14078;50.974;6.786;2022-10-23T10:38:11;16.90;99.90
26378;DHT22;14078;50.974;6.786;2022-10-23T10:40:40;16.90;99.90
26378;DHT22;14078;50.974;6.786;2022-10-23T10:43:14;16.90;99.90
26378;DHT22;14078;50.974;6.786;2022-10-23T10:45:47;16.90;99.90
26378;DHT22;14078;50.974;6.786;2022-10-23T10:48:20;16.90;99.90
26378;DHT22;14078;50.974;6.786;2022-10-23T10:50:49;16.90;99.90
26378;DHT22;14078;50.974;6.786;2022-10-23T10:53:21;16.90;99.90
26378;DHT22;14078;50.974;6.786;2022-10-23T10:55:49;16.90;99.90
26378;DHT22;14078;50.974;6.786;2022-10-23T10:58:17;17.00;99.90
26378;DHT22;14078;50.974;6.786;2022-10-23T11:00:48;16.90;99.90
26378;DHT22;14078;50.974;6.786;2022-10-23T11:03:20;17.00;99.90
26378;DHT22;14078;50.974;6.786;2022-10-23T11:05:47;16.90;99.90
26378;DHT22;14078;50.974;6.786;2022-10-23T11:08:17;17.00;99.90
26378;DHT22;14078;50.974;6.786;2022-10-23T11:10:48;16.90;99.90
26378;DHT22;14078;50.974;6.786;2022-10-23T11:13:22;16.90;99.90
26378;DHT22;14078;50.974;6.786;2022-10-23T11:15:50;16.80;99.90
26378;DHT22;14078;50.974;6.786;2022-10-23T11:18:20;16.80;99.90
26378;DHT22;14078;50.974;6.786;2022-10-23T11:20:52;16.70;99.90
26378;DHT22;14078;50.974;6.786;2022-10-23T11:23:29;16.60;99.90
26378;DHT22;14078;50.974;6.786;2022-10-23T11:26:01;16.60;99.90
26378;DHT22;14078;50.974;6.786;2022-10-23T11:28:38;16.50;99.90
26378;DHT22;14078;50.974;6.786;2022-10-23T11:31:07;16.40;99.90
26378;DHT22;14078;50.974;6.786;2022-10-23T11:33:53;16.40;99.90
26378;DHT22;14078;50.974;6.786;2022-10-23T11:36:34;16.40;99.90
26378;DHT22;14078;50.974;6.786;2022-10-23T11:39:06;16.40;99.90
26378;DHT22;14078;50.974;6.786;2022-10-23T11:41:45;16.50;99.90
26378;DHT22;14078;50.974;6.786;2022-10-23T11:44:21;16.60;99.90
26378;DHT22;14078;50.974;6.786;2022-10-23T11:46:57;16.80;99.90
26378;DHT22;14078;50.974;6.786;2022-10-23T11:49:25;17.00;99.90
26378;DHT22;14078;50.974;6.786;2022-10-23T11:51:58;17.20;99.90
26378;DHT22;14078;50.974;6.786;2022-10-23T11:54:24;17.30;99.90
26378;DHT22;14078;50.974;6.786;2022-10-23T11:56:54;17.30;99.90
26378;DHT22;14078;50.974;6.786;2022-10-23T11:59:22;17.40;99.90
26378;DHT22;14078;50.974;6.786;2022-10-23T12:01:51;17.40;99.90
26378;DHT22;14078;50.974;6.786;2022-10-23T12:04:20;17.40;99.90
26378;DHT22;14078;50.974;6.786;2022-10-23T12:06:48;17.50;99.90
26378;DHT22;14078;50.974;6.786;2022-10-23T12:09:22;17.60;99.90
26378;DHT22;14078;50.974;6.786;2022-10-23T12:12:03;17.70;99.90
26378;DHT22;14078;50.974;6.786;2022-10-23T12:14:31;17.70;99.90
26378;DHT22;14078;50.974;6.786;2022-10-23T12:16:58;17.70;99.90
26378;DHT22;14078;50.974;6.786;2022-10-23T12:19:25;17.70;99.90
26378;DHT22;14078;50.974;6.786;2022-10-23T12:21:52;17.60;99.30
26378;DHT22;14078;50.974;6.786;2022-10-23T12:24:29;17.70;99.90
26378;DHT22;14078;50.974;6.786;2022-10-23T12:27:15;17.60;99.90
26378;DHT22;14078;50.974;6.786;2022-10-23T12:29:53;17.60;99.90
26378;DHT22;14078;50.974;6.786;2022-10-23T12:32:26;17.60;99.90
26378;DHT22;14078;50.974;6.786;2022-10-23T12:35:03;17.60;99.50
26378;DHT22;14078;50.974;6.786;2022-10-23T12:37:38;17.60;99.90
26378;DHT22;14078;50.974;6.786;2022-10-23T12:40:10;17.60;99.90
26378;DHT22;14078;50.974;6.786;2022-10-23T12:42:38;17.50;99.90
26378;DHT22;14078;50.974;6.786;2022-10-23T12:45:16;17.60;99.90
26378;DHT22;14078;50.974;6.786;2022-10-23T12:47:44;17.60;99.90
26378;DHT22;14078;50.974;6.786;2022-10-23T12:50:17;17.60;99.90
26378;DHT22;14078;50.974;6.786;2022-10-23T12:52:51;17.60;99.90
26378;DHT22;14078;50.974;6.786;2022-10-23T12:55:18;17.60;99.90
26378;DHT22;14078;50.974;6.786;2022-10-23T12:57:45;17.60;99.90
26378;DHT22;14078;50.974;6.786;2022-10-23T13:00:16;17.60;99.90
26378;DHT22;14078;50.974;6.786;2022-10-23T13:02:43;17.50;99.90
26378;DHT22;14078;50.974;6.786;2022-10-23T13:05:10;17.60;99.90
26378;DHT22;14078;50.974;6.786;2022-10-23T13:07:41;17.60;99.90
26378;DHT22;14078;50.974;6.786;2022-10-23T13:10:09;17.70;99.90
26378;DHT22;14078;50.974;6.786;2022-10-23T13:12:37;17.60;99.90
26378;DHT22;14078;50.974;6.786;2022-10-23T13:15:13;17.70;99.90
26378;DHT22;14078;50.974;6.786;2022-10-23T13:17:40;17.60;99.90
26378;DHT22;14078;50.974;6.786;2022-10-23T13:20:08;17.60;99.90
26378;DHT22;14078;50.974;6.786;2022-10-23T13:22:35;17.60;99.90
26378;DHT22;14078;50.974;6.786;2022-10-23T13:25:01;17.60;99.90
26378;DHT22;14078;50.974;6.786;2022-10-23T13:27:30;17.60;99.90
26378;DHT22;14078;50.974;6.786;2022-10-23T13:29:58;17.60;99.90
26378;DHT22;14078;50.974;6.786;2022-10-23T13:32:27;17.50;99.90
26378;DHT22;14078;50.974;6.786;2022-10-23T13:34:55;17.60;99.90
26378;DHT22;14078;50.974;6.786;2022-10-23T13:37:23;17.60;99.90
26378;DHT22;14078;50.974;6.786;2022-10-23T13:39:59;17.60;99.90
26378;DHT22;14078;50.974;6.786;2022-10-23T13:42:26;17.70;99.90
26378;DHT22;14078;50.974;6.786;2022-10-23T13:44:53;17.70;99.90
26378;DHT22;14078;50.974;6.786;2022-10-23T13:47:20;17.70;99.90
26378;DHT22;14078;50.974;6.786;2022-10-23T13:49:47;17.60;99.90
26378;DHT22;14078;50.974;6.786;2022-10-23T13:52:15;17.80;99.90
26378;DHT22;14078;50.974;6.786;2022-10-23T13:54:44;17.70;99.90
26378;DHT22;14078;50.974;6.786;2022-10-23T13:57:12;17.70;99.90
26378;DHT22;14078;50.974;6.786;2022-10-23T13:59:39;17.70;99.90
26378;DHT22;14078;50.974;6.786;2022-10-23T14:02:08;17.70;99.90
26378;DHT22;14078;50.974;6.786;2022-10-23T14:04:39;17.80;99.90
26378;DHT22;14078;50.974;6.786;2022-10-23T14:07:07;17.70;99.90
26378;DHT22;14078;50.974;6.786;2022-10-23T14:09:33;17.70;99.90
26378;DHT22;14078;50.974;6.786;2022-10-23T14:11:59;17.70;99.90
26378;DHT22;14078;50.974;6.786;2022-10-23T14:14:26;17.70;99.90
26378;DHT22;14078;50.974;6.786;2022-10-23T14:16:52;17.70;99.90
26378;DHT22;14078;50.974;6.786;2022-10-23T14:19:19;17.70;99.90
26378;DHT22;14078;50.974;6.786;2022-10-23T14:21:46;17.70;99.90
26378;DHT22;14078;50.974;6.786;2022-10-23T14:24:13;17.70;99.90
26378;DHT22;14078;50.974;6.786;2022-10-23T14:26:40;17.80;99.90
26378;DHT22;14078;50.974;6.786;2022-10-23T14:29:07;17.80;99.90
26378;DHT22;14078;50.974;6.786;2022-10-23T14:31:34;17.90;99.90
26378;DHT22;14078;50.974;6.786;2022-10-23T14:34:00;17.80;99.90
26378;DHT22;14078;50.974;6.786;2022-10-23T14:36:27;17.80;99.90
26378;DHT22;14078;50.974;6.786;2022-10-23T14:38:54;17.80;99.90
26378;DHT22;14078;50.974;6.786;2022-10-23T14:41:22;17.80;99.90
26378;DHT22;14078;50.974;6.786;2022-10-23T14:43:49;17.70;99.90
26378;DHT22;14078;50.974;6.786;2022-10-23T14:46:16;17.80;99.90
26378;DHT22;14078;50.974;6.786;2022-10-23T14:48:43;17.80;99.90
26378;DHT22;14078;50.974;6.786;2022-10-23T14:51:16;17.80;99.90
26378;DHT22;14078;50.974;6.786;2022-10-23T14:53:43;17.70;99.90
26378;DHT22;14078;50.974;6.786;2022-10-23T14:56:10;17.70;99.90
26378;DHT22;14078;50.974;6.786;2022-10-23T14:58:38;17.70;99.90
26378;DHT22;14078;50.974;6.786;2022-10-23T15:01:06;17.70;99.90
26378;DHT22;14078;50.974;6.786;2022-10-23T15:03:34;17.70;99.90
26378;DHT22;14078;50.974;6.786;2022-10-23T15:06:00;17.70;99.90
26378;DHT22;14078;50.974;6.786;2022-10-23T15:08:27;17.70;99.90
26378;DHT22;14078;50.974;6.786;2022-10-23T15:10:53;17.80;99.90
26378;DHT22;14078;50.974;6.786;2022-10-23T15:13:20;17.90;99.90
26378;DHT22;14078;50.974;6.786;2022-10-23T15:15:48;17.90;99.90
26378;DHT22;14078;50.974;6.786;2022-10-23T15:18:14;17.80;99.90
26378;DHT22;14078;50.974;6.786;2022-10-23T15:20:50;17.80;99.90
26378;DHT22;14078;50.974;6.786;2022-10-23T15:23:16;17.80;99.90
26378;DHT22;14078;50.974;6.786;2022-10-23T15:25:43;17.60;99.90
26378;DHT22;14078;50.974;6.786;2022-10-23T15:28:09;17.50;99.90
26378;DHT22;14078;50.974;6.786;2022-10-23T15:30:36;17.30;99.90
26378;DHT22;14078;50.974;6.786;2022-10-23T15:33:08;17.20;99.90
26378;DHT22;14078;50.974;6.786;2022-10-23T15:35:35;17.10;99.90
26378;DHT22;14078;50.974;6.786;2022-10-23T15:38:02;17.00;99.90